Time;durP1;ratioP1;P1;durP2;ratioP2;P2;SDS_P1;SDS_P2;PMS_P1;PMS_P2;Temp;Humidity;BMP_temperature;BMP_pressure;BME280_temperature;BME280_humidity;BME280_pressure;Samples;Min_cycle;Max_cycle;Signal;HPM_P1;HPM_P2
2023/10/24 00:00:01;;;;;;;4.40;4.10;;;;;;;10.64;100.00;99839.69;5976481;29;20046;-92
2023/10/24 00:03:12;;;;;;;5.40;5.10;;;;;;;10.65;100.00;99828.38;5967138;29;20103;-92
2023/10/24 00:06:15;;;;;;;5.18;4.68;;;;;;;10.61;100.00;99819.25;5980231;29;20345;-92
2023/10/24 00:09:17;;;;;;;5.57;5.05;;;;;;;10.59;100.00;99834.13;5975021;29;20051;-92
2023/10/24 00:12:19;;;;;;;4.70;4.50;;;;;;;10.59;100.00;99836.72;5965289;29;20138;-92
2023/10/24 00:15:21;;;;;;;5.68;5.40;;;;;;;10.57;100.00;99831.66;5984377;29;20050;-92
2023/10/24 00:18:24;;;;;;;4.78;4.57;;;;;;;10.55;100.00;99829.19;5976234;29;20050;-92
2023/10/24 00:21:26;;;;;;;5.45;5.22;;;;;;;10.53;100.00;99831.13;5981139;29;20046;-92
2023/10/24 00:24:28;;;;;;;4.07;3.97;;;;;;;10.53;100.00;99814.75;5969579;29;20136;-92
2023/10/24 00:27:30;;;;;;;5.63;5.10;;;;;;;10.50;100.00;99815.84;5969950;29;20039;-92
2023/10/24 00:30:34;;;;;;;5.47;5.28;;;;;;;10.53;100.00;99817.34;5991170;29;20505;-91
2023/10/24 00:33:36;;;;;;;5.78;5.35;;;;;;;10.52;100.00;99813.94;5974774;29;20106;-91
2023/10/24 00:36:41;;;;;;;6.00;5.15;;;;;;;10.52;100.00;99800.19;5976551;29;20082;-91
2023/10/24 00:39:43;;;;;;;5.07;4.72;;;;;;;10.53;100.00;99791.47;5983325;29;20457;-91
2023/10/24 00:42:45;;;;;;;5.93;5.53;;;;;;;10.53;100.00;99791.47;5982507;29;20057;-91
2023/10/24 00:45:47;;;;;;;5.35;5.15;;;;;;;10.58;100.00;99791.88;5978921;29;20046;-91
2023/10/24 00:48:50;;;;;;;4.97;4.78;;;;;;;10.57;100.00;99791.06;5967454;29;20195;-92
2023/10/24 00:51:54;;;;;;;4.95;4.68;;;;;;;10.60;100.00;99795.13;5976377;29;20055;-92
2023/10/24 00:54:57;;;;;;;4.40;4.22;;;;;;;10.58;100.00;99784.09;5970266;29;20045;-91
2023/10/24 00:58:01;;;;;;;4.78;4.57;;;;;;;10.57;100.00;99766.97;5981553;29;20050;-91
2023/10/24 01:01:07;;;;;;;6.55;5.97;;;;;;;10.57;100.00;99765.19;5981419;29;20047;-91
2023/10/24 01:04:09;;;;;;;4.35;4.07;;;;;;;10.55;100.00;99766.28;5971344;29;20505;-90
2023/10/24 01:07:11;;;;;;;5.32;4.88;;;;;;;10.57;100.00;99772.13;5968356;29;20051;-90
2023/10/24 01:10:13;;;;;;;7.22;5.55;;;;;;;10.59;100.00;99772.81;5973726;29;20104;-90
2023/10/24 01:13:16;;;;;;;4.28;4.13;;;;;;;10.58;100.00;99781.53;5970543;29;20053;-90
2023/10/24 01:16:18;;;;;;;4.60;4.40;;;;;;;10.54;100.00;99783.59;5970243;29;20125;-91
2023/10/24 01:19:21;;;;;;;5.78;5.20;;;;;;;10.53;100.00;99783.72;5969219;29;20116;-91
2023/10/24 01:22:23;;;;;;;6.47;6.10;;;;;;;10.49;100.00;99774.63;5967920;29;20042;-91
2023/10/24 01:25:28;;;;;;;6.25;5.88;;;;;;;10.52;100.00;99782.09;5980830;29;20043;-91
2023/10/24 01:28:30;;;;;;;4.93;4.70;;;;;;;10.49;100.00;99772.84;5979777;29;20042;-91
2023/10/24 01:31:34;;;;;;;4.45;4.30;;;;;;;10.52;100.00;99775.13;5961651;29;20489;-91
2023/10/24 01:34:35;;;;;;;4.95;4.70;;;;;;;10.62;100.00;99767.34;5961801;29;20057;-91
2023/10/24 01:37:40;;;;;;;4.40;4.20;;;;;;;10.59;100.00;99766.84;5969083;29;20039;-91
2023/10/24 01:40:42;;;;;;;5.10;4.85;;;;;;;10.53;100.00;99761.25;5972056;29;20047;-91
2023/10/24 01:43:44;;;;;;;5.00;4.68;;;;;;;10.54;100.00;99765.47;5974452;29;20097;-90
2023/10/24 01:46:46;;;;;;;4.88;4.55;;;;;;;10.55;100.00;99766.28;5969044;29;20069;-91
2023/10/24 01:49:47;;;;;;;5.07;4.88;;;;;;;10.53;100.00;99760.41;5979629;29;20055;-91
2023/10/24 01:52:49;;;;;;;5.00;4.80;;;;;;;10.55;100.00;99759.31;5968007;29;20513;-91
2023/10/24 01:55:51;;;;;;;4.50;4.35;;;;;;;10.53;100.00;99752.66;5964521;29;20698;-91
2023/10/24 01:58:54;;;;;;;4.45;4.30;;;;;;;10.52;100.00;99754.44;5973675;29;20046;-91
2023/10/24 02:01:56;;;;;;;4.40;4.13;;;;;;;10.52;100.00;99751.03;5985425;29;20669;-91
2023/10/24 02:04:58;;;;;;;4.30;4.10;;;;;;;10.52;100.00;99743.28;5978739;29;20075;-91
2023/10/24 02:08:01;;;;;;;5.80;5.47;;;;;;;10.54;100.00;99733.59;5972404;29;20050;-91
2023/10/24 02:11:02;;;;;;;6.07;5.13;;;;;;;10.55;100.00;99735.22;5975157;29;20070;-91
2023/10/24 02:14:04;;;;;;;4.32;4.07;;;;;;;10.53;100.00;99722.44;5968475;29;20081;-91
2023/10/24 02:17:07;;;;;;;5.28;4.97;;;;;;;10.55;100.00;99727.47;5979386;29;20124;-91
2023/10/24 02:20:09;;;;;;;5.28;4.88;;;;;;;10.54;100.00;99720.66;5980284;29;20046;-92
2023/10/24 02:23:11;;;;;;;5.13;4.93;;;;;;;10.53;100.00;99717.28;5967397;29;20535;-91
2023/10/24 02:26:15;;;;;;;4.60;4.38;;;;;;;10.51;100.00;99719.19;5981497;29;20042;-90
2023/10/24 02:29:17;;;;;;;4.30;4.18;;;;;;;10.49;100.00;99712.50;5968599;29;20058;-90
2023/10/24 02:32:19;;;;;;;6.82;6.38;;;;;;;10.50;100.00;99711.53;5964656;29;20058;-91
2023/10/24 02:35:22;;;;;;;7.07;6.07;;;;;;;10.48;100.00;99698.78;5981255;29;20058;-91
2023/10/24 02:38:24;;;;;;;5.25;4.95;;;;;;;10.47;100.00;99696.31;5979560;29;20043;-91
2023/10/24 02:41:26;;;;;;;4.97;4.68;;;;;;;10.49;100.00;99684.84;5985457;29;20562;-92
2023/10/24 02:44:28;;;;;;;4.70;4.50;;;;;;;10.52;100.00;99673.41;5977221;29;20047;-92
2023/10/24 02:47:30;;;;;;;6.38;5.88;;;;;;;10.52;100.00;99665.66;5965491;29;20054;-92
2023/10/24 02:50:32;;;;;;;6.03;5.63;;;;;;;10.49;100.00;99656.41;5968085;29;20050;-93
2023/10/24 02:53:34;;;;;;;5.03;4.75;;;;;;;10.43;100.00;99654.38;5970969;29;20089;-93
2023/10/24 02:56:37;;;;;;;4.57;4.38;;;;;;;10.37;100.00;99660.13;5959984;29;20577;-93
2023/10/24 02:59:39;;;;;;;5.68;5.38;;;;;;;10.38;100.00;99655.75;5978665;29;20134;-92
2023/10/24 03:02:42;;;;;;;5.55;5.35;;;;;;;10.31;100.00;99639.97;5965588;29;20449;-93
2023/10/24 03:05:45;;;;;;;5.68;5.20;;;;;;;10.22;100.00;99640.81;5968928;29;20054;-93
2023/10/24 03:08:48;;;;;;;4.97;4.72;;;;;;;10.17;100.00;99648.16;5970272;29;20558;-93
2023/10/24 03:11:50;;;;;;;7.25;6.38;;;;;;;10.04;100.00;99653.66;5978533;29;20058;-93
2023/10/24 03:14:52;;;;;;;4.75;4.55;;;;;;;9.95;100.00;99655.28;5982015;29;20154;-93
2023/10/24 03:17:54;;;;;;;5.00;4.57;;;;;;;9.88;100.00;99647.25;5972913;29;20221;-93
2023/10/24 03:20:57;;;;;;;4.40;4.20;;;;;;;9.87;100.00;99648.22;5979035;29;20098;-93
2023/10/24 03:23:59;;;;;;;5.85;5.45;;;;;;;9.86;100.00;99643.19;5959001;29;20122;-93
2023/10/24 03:27:01;;;;;;;5.60;5.40;;;;;;;9.82;100.00;99629.72;5964331;29;20046;-93
2023/10/24 03:30:04;;;;;;;3.78;3.67;;;;;;;9.85;100.00;99649.31;5961861;29;20051;-93
2023/10/24 03:33:06;;;;;;;4.32;4.18;;;;;;;9.85;100.00;99662.25;5965815;29;20046;-93
2023/10/24 03:36:14;;;;;;;4.45;4.22;;;;;;;9.83;100.00;99682.22;5964664;29;20122;-94
2023/10/24 03:39:16;;;;;;;5.20;5.00;;;;;;;9.87;100.00;99674.06;5966621;29;20378;-94
2023/10/24 03:42:18;;;;;;;5.63;5.32;;;;;;;9.92;100.00;99681.41;5969495;29;20077;-94
2023/10/24 03:45:20;;;;;;;4.82;4.63;;;;;;;9.91;100.00;99669.44;5967134;29;20095;-94
2023/10/24 03:48:22;;;;;;;4.63;4.43;;;;;;;9.89;100.00;99673.94;5971803;29;20462;-94
2023/10/24 03:51:24;;;;;;;4.28;4.13;;;;;;;9.83;100.00;99667.53;5966725;29;20050;-94
2023/10/24 03:54:27;;;;;;;5.60;5.40;;;;;;;9.81;100.00;99674.63;5977196;29;20092;-94
2023/10/24 03:57:30;;;;;;;4.45;4.35;;;;;;;9.85;100.00;99675.16;5969087;29;20055;-94
2023/10/24 04:00:32;;;;;;;4.10;3.95;;;;;;;9.87;100.00;99670.69;5967605;29;20046;-94
2023/10/24 04:03:34;;;;;;;4.93;4.57;;;;;;;9.89;100.00;99673.94;5967003;29;20057;-94
2023/10/24 04:06:37;;;;;;;5.70;5.40;;;;;;;9.92;100.00;99663.31;5967641;29;20395;-94
2023/10/24 04:09:39;;;;;;;4.55;4.28;;;;;;;9.93;100.00;99667.53;5969387;29;20048;-94
2023/10/24 04:12:42;;;;;;;4.97;4.75;;;;;;;9.96;100.00;99669.81;5964646;29;20472;-94
2023/10/24 04:15:44;;;;;;;4.97;4.68;;;;;;;9.99;100.00;99663.59;5964455;29;20046;-94
2023/10/24 04:18:47;;;;;;;5.20;5.00;;;;;;;10.02;100.00;99660.72;5966622;29;20062;-94
2023/10/24 04:21:49;;;;;;;4.75;4.55;;;;;;;10.03;100.00;99652.00;5968102;29;20055;-94
2023/10/24 04:24:51;;;;;;;5.53;5.22;;;;;;;10.04;100.00;99657.03;5975740;29;20051;-94
2023/10/24 04:27:53;;;;;;;4.18;4.05;;;;;;;10.07;100.00;99667.09;5970111;29;20050;-93
2023/10/24 04:30:55;;;;;;;5.45;5.13;;;;;;;10.10;100.00;99669.41;5968171;29;20101;-94
2023/10/24 04:33:57;;;;;;;5.15;4.95;;;;;;;10.12;100.00;99659.75;5970005;29;20406;-93
2023/10/24 04:37:00;;;;;;;8.38;5.18;;;;;;;10.12;100.00;99653.75;5973910;29;20110;-93
2023/10/24 04:40:03;;;;;;;5.18;4.93;;;;;;;10.12;100.00;99639.06;5960685;29;20513;-94
2023/10/24 04:43:06;;;;;;;4.50;4.30;;;;;;;10.14;100.00;99649.28;5972440;29;20266;-93
2023/10/24 04:46:09;;;;;;;4.97;4.85;;;;;;;10.14;100.00;99647.50;5962836;29;20045;-94
2023/10/24 04:49:13;;;;;;;4.93;4.72;;;;;;;10.14;100.00;99647.50;5972723;29;20047;-94
2023/10/24 04:52:15;;;;;;;4.18;4.07;;;;;;;10.10;100.00;99645.31;5965688;29;20433;-94
2023/10/24 04:55:17;;;;;;;5.25;5.05;;;;;;;10.09;100.00;99654.84;5980459;29;20086;-94
2023/10/24 04:58:20;;;;;;;4.78;4.57;;;;;;;10.10;100.00;99640.97;5974681;29;20057;-94
2023/10/24 05:01:22;;;;;;;5.22;4.93;;;;;;;10.11;100.00;99641.75;5968534;29;20055;-94
2023/10/24 05:04:25;;;;;;;3.97;3.88;;;;;;;10.10;100.00;99646.13;5977370;29;20086;-94
2023/10/24 05:07:27;;;;;;;4.88;4.57;;;;;;;10.09;100.00;99643.69;5976810;29;20046;-94
2023/10/24 05:10:30;;;;;;;5.25;4.90;;;;;;;10.10;100.00;99637.56;5976611;29;20104;-94
2023/10/24 05:13:32;;;;;;;5.63;5.32;;;;;;;10.12;100.00;99636.47;5978109;29;20718;-94
2023/10/24 05:16:34;;;;;;;5.00;4.60;;;;;;;10.14;100.00;99628.59;5985597;29;20046;-93
2023/10/24 05:19:36;;;;;;;3.90;3.80;;;;;;;10.15;100.00;99630.19;5976943;29;20250;-93
2023/10/24 05:22:39;;;;;;;3.90;3.80;;;;;;;10.17;100.00;99627.47;5964477;29;20042;-93
2023/10/24 05:25:42;;;;;;;5.93;5.63;;;;;;;10.17;100.00;99624.91;5974157;29;20868;-93
2023/10/24 05:28:45;;;;;;;4.55;4.40;;;;;;;10.17;100.00;99624.91;5972835;29;20039;-93
2023/10/24 05:31:47;;;;;;;4.28;4.07;;;;;;;10.16;100.00;99621.50;5977134;29;20034;-94
2023/10/24 05:34:49;;;;;;;3.63;3.53;;;;;;;10.20;100.00;99615.06;5973125;29;20051;-93
2023/10/24 05:37:51;;;;;;;3.88;3.78;;;;;;;10.25;100.00;99614.66;5974355;29;20125;-94
2023/10/24 05:40:54;;;;;;;5.15;4.95;;;;;;;10.26;100.00;99609.34;5969918;29;20465;-94
2023/10/24 05:43:56;;;;;;;4.72;4.13;;;;;;;10.29;100.00;99613.47;5974257;29;20049;-93
2023/10/24 05:46:58;;;;;;;3.67;3.42;;;;;;;10.26;100.00;99606.75;5976863;29;20042;-93
2023/10/24 05:50:01;;;;;;;4.53;4.32;;;;;;;10.29;100.00;99626.38;5972087;29;20112;-94
2023/10/24 05:53:02;;;;;;;4.60;4.40;;;;;;;10.28;100.00;99627.31;5974311;29;20498;-94
2023/10/24 05:56:05;;;;;;;4.15;4.03;;;;;;;10.26;100.00;99621.44;5976797;29;20050;-94
2023/10/24 05:59:08;;;;;;;3.78;3.67;;;;;;;10.24;100.00;99618.22;5976392;29;20107;-94
2023/10/24 06:02:09;;;;;;;4.40;4.20;;;;;;;10.24;100.00;99608.66;5970234;29;20042;-94
2023/10/24 06:05:11;;;;;;;4.00;3.90;;;;;;;10.26;100.00;99605.94;5970451;29;20054;-94
2023/10/24 06:08:14;;;;;;;4.38;4.18;;;;;;;10.23;100.00;99607.03;5972337;29;20062;-94
2023/10/24 06:11:16;;;;;;;3.85;3.75;;;;;;;10.25;100.00;99593.97;5970069;29;20210;-94
2023/10/24 06:14:18;;;;;;;4.20;4.00;;;;;;;10.26;100.00;99588.66;5972324;29;20050;-94
2023/10/24 06:17:21;;;;;;;4.07;3.97;;;;;;;10.28;100.00;99604.03;5974256;29;20259;-94
2023/10/24 06:20:23;;;;;;;4.50;4.40;;;;;;;10.28;100.00;99612.63;5971470;29;20070;-94
2023/10/24 06:23:25;;;;;;;5.25;4.95;;;;;;;10.29;100.00;99619.44;5972942;29;20046;-94
2023/10/24 06:26:28;;;;;;;3.78;3.65;;;;;;;10.27;100.00;99623.91;5977108;29;20046;-95
2023/10/24 06:29:30;;;;;;;3.47;3.38;;;;;;;10.32;100.00;99626.09;5974666;29;20047;-94
2023/10/24 06:32:32;;;;;;;3.30;3.20;;;;;;;10.37;100.00;99625.69;5965124;29;20599;-94
2023/10/24 06:35:35;;;;;;;4.72;4.57;;;;;;;10.37;100.00;99621.31;5967315;29;20129;-94
2023/10/24 06:38:37;;;;;;;3.80;3.70;;;;;;;10.41;100.00;99619.25;5970630;29;20053;-95
2023/10/24 06:41:39;;;;;;;3.35;3.25;;;;;;;10.45;100.00;99621.41;5971126;29;20055;-94
2023/10/24 06:44:41;;;;;;;3.90;3.80;;;;;;;10.49;100.00;99627.13;5975750;29;20038;-95
2023/10/24 06:47:44;;;;;;;4.07;3.97;;;;;;;10.53;100.00;99628.44;5980254;29;20644;-95
2023/10/24 06:50:47;;;;;;;4.25;4.05;;;;;;;10.57;100.00;99634.97;5974466;29;20046;-94
2023/10/24 06:53:51;;;;;;;3.53;3.42;;;;;;;10.61;100.00;99633.75;5978884;29;20053;-95
2023/10/24 06:56:54;;;;;;;4.32;4.22;;;;;;;10.63;100.00;99641.34;5968138;29;20624;-95
2023/10/24 06:59:56;;;;;;;3.90;3.72;;;;;;;10.66;100.00;99625.56;5973717;29;20047;-95
2023/10/24 07:02:58;;;;;;;4.43;4.32;;;;;;;10.74;100.00;99634.22;5975626;29;20047;-95
2023/10/24 07:06:01;;;;;;;3.40;3.30;;;;;;;10.78;100.00;99629.56;5977704;29;20146;-95
2023/10/24 07:09:03;;;;;;;4.22;4.13;;;;;;;10.83;100.00;99627.38;5969893;29;20043;-96
2023/10/24 07:12:06;;;;;;;3.40;3.30;;;;;;;10.88;100.00;99616.56;5969720;29;20183;-95
2023/10/24 07:15:09;;;;;;;3.97;3.88;;;;;;;10.92;100.00;99625.66;5968357;29;20409;-95
2023/10/24 07:18:13;;;;;;;3.80;3.70;;;;;;;10.99;100.00;99618.97;5975712;29;20046;-96
2023/10/24 07:21:17;;;;;;;4.13;3.92;;;;;;;11.05;100.00;99612.38;5981985;29;20057;-96
2023/10/24 07:24:20;;;;;;;3.40;3.30;;;;;;;11.13;100.00;99617.63;5982207;29;20070;-96
2023/10/24 07:27:23;;;;;;;4.07;3.88;;;;;;;11.20;100.00;99605.72;5986776;29;20042;-96
2023/10/24 07:30:25;;;;;;;3.83;3.72;;;;;;;11.27;100.00;99595.59;5971853;29;20497;-96
2023/10/24 07:33:28;;;;;;;3.58;3.47;;;;;;;11.30;100.00;99606.44;5975663;29;20497;-96
2023/10/24 07:36:31;;;;;;;3.70;3.60;;;;;;;11.46;100.00;99595.44;5979175;29;20057;-96
2023/10/24 07:39:35;;;;;;;3.63;3.42;;;;;;;11.55;100.00;99602.31;5965229;29;20043;-96
2023/10/24 07:42:37;;;;;;;3.83;3.72;;;;;;;11.54;100.00;99586.91;5975250;29;20051;-96
2023/10/24 07:45:40;;;;;;;3.58;3.47;;;;;;;11.69;100.00;99589.75;5992566;29;20058;-96
2023/10/24 07:48:44;;;;;;;3.13;3.03;;;;;;;11.79;100.00;99595.66;5992540;29;20042;-96
2023/10/24 07:51:47;;;;;;;4.05;3.85;;;;;;;11.84;100.00;99589.03;5982102;29;20119;-96
2023/10/24 07:54:50;;;;;;;3.15;3.05;;;;;;;11.91;100.00;99588.47;5984192;29;20045;-96
2023/10/24 07:57:54;;;;;;;4.57;4.38;;;;;;;12.02;100.00;99588.22;5978726;29;20509;-96
2023/10/24 08:00:56;;;;;;;3.13;3.03;;;;;;;12.08;100.00;99579.81;5975847;29;20089;-96
2023/10/24 08:03:59;;;;;;;3.00;2.90;;;;;;;12.12;100.00;99570.75;5977051;29;20053;-96
2023/10/24 08:07:03;;;;;;;3.50;3.40;;;;;;;12.15;100.00;99554.91;5966541;29;20054;-96
2023/10/24 08:10:06;;;;;;;4.28;4.03;;;;;;;12.17;100.00;99552.94;5981070;29;20047;-96
2023/10/24 08:13:09;;;;;;;3.67;3.58;;;;;;;12.22;100.00;99555.06;5979348;29;20067;-96
2023/10/24 08:16:12;;;;;;;3.50;3.40;;;;;;;12.25;100.00;99560.78;5989541;29;20630;-96
2023/10/24 08:19:15;;;;;;;3.75;3.55;;;;;;;12.33;100.00;99551.41;5985218;29;20549;-96
2023/10/24 08:22:20;;;;;;;3.92;3.72;;;;;;;12.36;100.00;99564.88;5970999;29;20043;-96
2023/10/24 08:25:23;;;;;;;3.65;3.55;;;;;;;12.43;100.00;99558.06;5979503;29;20058;-96
2023/10/24 08:28:27;;;;;;;3.40;3.30;;;;;;;12.52;100.00;99550.31;5986851;29;20058;-96
2023/10/24 08:31:38;;;;;;;3.92;3.00;;;;;;;12.56;100.00;99552.44;5976917;29;20051;-96
2023/10/24 08:35:04;;;;;;;2.65;2.65;;;;;;;12.60;100.00;99558.94;5983031;29;20058;-96
2023/10/24 08:38:11;;;;;;;4.30;4.10;;;;;;;12.70;100.00;99567.41;5981846;29;20474;-96
2023/10/24 08:41:13;;;;;;;3.85;3.65;;;;;;;12.78;100.00;99565.81;5972898;29;20243;-96
2023/10/24 08:44:18;;;;;;;4.82;4.45;;;;;;;12.86;100.00;99560.63;5978868;29;20042;-96
2023/10/24 08:47:21;;;;;;;3.13;3.03;;;;;;;12.95;100.00;99557.06;5979428;29;20050;-96
2023/10/24 08:50:23;;;;;;;3.40;3.30;;;;;;;13.05;100.00;99573.31;5976293;29;20042;-96
2023/10/24 08:53:26;;;;;;;4.20;4.10;;;;;;;13.06;100.00;99568.94;5971498;29;20279;-96
2023/10/24 08:56:30;;;;;;;3.60;3.50;;;;;;;13.06;100.00;99569.75;5979348;29;20058;-96
2023/10/24 08:59:38;;;;;;;4.03;3.92;;;;;;;13.07;100.00;99567.97;5983020;29;20058;-96
2023/10/24 09:02:49;;;;;;;4.05;3.95;;;;;;;13.10;100.00;99567.66;5976039;29;20054;-96
2023/10/24 09:05:54;;;;;;;3.35;3.25;;;;;;;13.11;100.00;99561.47;5975409;29;20085;-96
2023/10/24 09:08:59;;;;;;;3.28;3.17;;;;;;;13.14;100.00;99556.78;5974083;29;20034;-96
2023/10/24 09:12:04;;;;;;;3.28;3.17;;;;;;;13.19;100.00;99547.66;5973506;29;20050;-96
2023/10/24 09:15:14;;;;;;;4.10;4.00;;;;;;;13.28;100.00;99544.94;5981830;29;20686;-96
2023/10/24 09:18:17;;;;;;;3.38;3.28;;;;;;;13.38;100.00;99539.56;5970278;29;20569;-96
2023/10/24 09:21:20;;;;;;;3.15;3.05;;;;;;;13.45;100.00;99519.75;5974934;29;20124;-96
2023/10/24 09:24:26;;;;;;;3.08;2.97;;;;;;;13.52;100.00;99518.13;5975885;29;20100;-96
2023/10/24 09:27:28;;;;;;;3.75;3.65;;;;;;;13.54;100.00;99530.97;5972591;29;20053;-96
2023/10/24 09:30:33;;;;;;;4.45;4.25;;;;;;;13.48;100.00;99532.41;5969710;29;20560;-96
2023/10/24 09:33:36;;;;;;;3.40;3.30;;;;;;;13.50;100.00;99540.88;5971575;29;20528;-96
2023/10/24 09:36:39;;;;;;;3.22;3.13;;;;;;;13.56;100.00;99545.41;5976547;29;20077;-95
2023/10/24 09:39:54;;;;;;;2.72;2.70;;;;;;;13.67;100.00;99552.06;5974331;29;20610;-96
2023/10/24 09:43:01;;;;;;;3.25;3.15;;;;;;;13.74;100.00;99553.03;5968235;29;20166;-96
2023/10/24 09:46:07;;;;;;;3.47;3.38;;;;;;;13.75;100.00;99546.03;5973365;29;20081;-96
2023/10/24 09:49:12;;;;;;;3.72;3.63;;;;;;;13.68;100.00;99542.47;5974339;29;20039;-96
2023/10/24 09:52:16;;;;;;;3.45;3.35;;;;;;;13.59;100.00;99539.06;5990728;29;20054;-96
2023/10/24 09:55:19;;;;;;;3.50;3.35;;;;;;;13.49;100.00;99549.66;5973194;29;20055;-96
2023/10/24 09:58:25;;;;;;;3.85;3.70;;;;;;;13.47;100.00;99543.81;5992420;29;20049;-96
2023/10/24 10:01:28;;;;;;;3.40;3.28;;;;;;;13.41;100.00;99547.03;5976654;29;20096;-96
2023/10/24 10:04:32;;;;;;;3.75;3.65;;;;;;;13.33;100.00;99545.25;5978419;29;20042;-96
2023/10/24 10:07:37;;;;;;;3.22;3.05;;;;;;;13.30;100.00;99549.97;5971541;29;20039;-96
2023/10/24 10:10:42;;;;;;;4.03;3.70;;;;;;;13.26;100.00;99544.25;5975506;29;20073;-96
2023/10/24 10:14:06;;;;;;;3.28;3.17;;;;;;;13.21;100.00;99535.31;5977300;29;20054;-96
2023/10/24 10:17:34;;;;;;;3.92;3.67;;;;;;;13.19;100.00;99532.91;5977519;29;20046;-96
2023/10/24 10:21:17;;;;;;;2.90;2.85;;;;;;;13.27;100.00;99525.13;5970954;29;20174;-96
2023/10/24 10:24:24;;;;;;;3.35;3.25;;;;;;;13.41;100.00;99504.63;5961597;29;20180;-96
2023/10/24 10:27:48;;;;;;;3.50;3.38;;;;;;;13.51;100.00;99500.88;5970552;29;20211;-96
2023/10/24 10:31:11;;;;;;;4.40;3.53;;;;;;;13.61;100.00;99489.50;5980889;29;20155;-96
2023/10/24 10:34:36;;;;;;;3.03;2.92;;;;;;;13.73;100.00;99480.34;5975659;29;20062;-96
2023/10/24 10:38:06;;;;;;;2.78;2.75;;;;;;;13.79;100.00;99475.31;5973143;29;20046;-96
2023/10/24 10:41:28;;;;;;;3.25;3.15;;;;;;;13.90;100.00;99487.13;5976605;29;20049;-96
2023/10/24 10:44:41;;;;;;;3.53;3.42;;;;;;;13.91;100.00;99478.38;5975733;29;20038;-96
2023/10/24 10:47:46;;;;;;;2.97;2.88;;;;;;;13.89;100.00;99482.91;5971377;29;20050;-96
2023/10/24 10:50:49;;;;;;;3.38;3.28;;;;;;;13.90;100.00;99491.53;5980603;29;20051;-96
2023/10/24 10:54:30;;;;;;;3.63;3.45;;;;;;;13.97;100.00;99492.47;5970483;29;20129;-96
2023/10/24 10:57:55;;;;;;;3.70;3.60;;;;;;;14.02;100.00;99486.78;5977167;29;20085;-96
2023/10/24 11:01:05;;;;;;;3.22;3.13;;;;;;;14.04;100.00;99483.03;5978328;29;20076;-96
2023/10/24 11:04:15;;;;;;;2.88;2.78;;;;;;;14.04;100.00;99477.00;5966809;29;20123;-96
2023/10/24 11:07:57;;;;;;;3.13;3.03;;;;;;;14.02;100.00;99476.38;5976443;29;20178;-96
2023/10/24 11:11:00;;;;;;;3.03;2.92;;;;;;;14.00;100.00;99474.72;5972644;29;20043;-96
2023/10/24 11:14:21;;;;;;;2.92;2.83;;;;;;;14.00;100.00;99481.72;5977915;29;20576;-96
2023/10/24 11:17:24;;;;;;;3.03;2.92;;;;;;;13.99;100.00;99483.53;5977031;29;20050;-96
2023/10/24 11:20:27;;;;;;;3.15;3.05;;;;;;;13.96;100.00;99467.41;5971417;29;20039;-96
2023/10/24 11:23:32;;;;;;;2.92;2.83;;;;;;;13.91;100.00;99475.75;5970171;29;20102;-96
2023/10/24 11:26:35;;;;;;;3.17;3.08;;;;;;;13.91;100.00;99467.13;5975585;29;20054;-96
2023/10/24 11:29:43;;;;;;;3.42;3.33;;;;;;;13.89;100.00;99456.09;5977370;29;20083;-96
2023/10/24 11:32:48;;;;;;;3.05;2.95;;;;;;;13.85;100.00;99455.59;5973349;29;20046;-96
2023/10/24 11:35:51;;;;;;;2.90;2.80;;;;;;;13.82;100.00;99455.16;5970794;29;20047;-96
2023/10/24 11:38:58;;;;;;;3.15;3.05;;;;;;;13.79;100.00;99456.28;5977291;29;20058;-96
2023/10/24 11:42:04;;;;;;;3.20;3.10;;;;;;;13.72;100.00;99447.53;5990700;29;20054;-95
2023/10/24 11:45:08;;;;;;;2.97;2.88;;;;;;;13.74;100.00;99443.00;6006122;24;20051;-96
2023/10/24 11:48:12;;;;;;;2.28;2.28;;;;;;;13.72;100.00;99439.75;5953347;29;20047;-96
2023/10/24 11:51:27;;;;;;;2.90;2.80;;;;;;;13.75;100.00;99434.19;5972893;29;20132;-96
2023/10/24 11:55:02;;;;;;;2.55;2.50;;;;;;;13.73;100.00;99430.94;5987380;29;20850;-96
2023/10/24 11:58:21;;;;;;;2.42;2.38;;;;;;;13.70;100.00;99428.69;5989923;29;20116;-96
2023/10/24 12:01:57;;;;;;;2.97;2.88;;;;;;;13.67;100.00;99431.63;5979491;29;20048;-96
2023/10/24 12:05:32;;;;;;;2.22;2.22;;;;;;;13.65;100.00;99433.59;5981892;29;20078;-96
2023/10/24 12:09:12;;;;;;;2.30;2.30;;;;;;;13.67;100.00;99437.63;5987071;29;20072;-96
2023/10/24 12:12:41;;;;;;;3.03;2.88;;;;;;;13.68;100.00;99435.84;5990097;29;20042;-96
2023/10/24 12:16:03;;;;;;;2.50;2.50;;;;;;;13.73;100.00;99441.34;5983556;29;20047;-96
2023/10/24 12:19:17;;;;;;;2.40;2.40;;;;;;;13.76;100.00;99436.63;5979964;29;20073;-96
2023/10/24 12:22:46;;;;;;;2.35;2.35;;;;;;;13.79;100.00;99432.88;5984282;29;20046;-96
2023/10/24 12:26:01;;;;;;;2.50;2.50;;;;;;;13.80;100.00;99447.50;5979666;29;20076;-96
2023/10/24 12:29:11;;;;;;;3.08;2.97;;;;;;;13.81;100.00;99449.09;5972345;29;20110;-96
2023/10/24 12:32:23;;;;;;;3.65;3.42;;;;;;;13.82;100.00;99442.13;5969244;29;20058;-96
2023/10/24 12:35:30;;;;;;;3.28;3.17;;;;;;;13.79;100.00;99438.09;5973990;29;20062;-96
2023/10/24 12:38:37;;;;;;;3.05;2.95;;;;;;;13.81;100.00;99430.09;5955909;29;20448;-96
2023/10/24 12:41:40;;;;;;;3.03;2.92;;;;;;;13.78;100.00;99423.44;5980042;29;20046;-96
2023/10/24 12:44:43;;;;;;;3.50;3.35;;;;;;;13.81;100.00;99410.09;5956782;29;20046;-96
2023/10/24 12:47:46;;;;;;;2.95;2.85;;;;;;;13.81;100.00;99398.88;5971082;29;20051;-96
2023/10/24 12:50:48;;;;;;;3.00;2.90;;;;;;;13.84;100.00;99412.38;5948028;29;20051;-96
2023/10/24 12:53:52;;;;;;;2.53;2.53;;;;;;;13.85;100.00;99414.00;5971891;29;20050;-96
2023/10/24 12:56:55;;;;;;;3.05;2.95;;;;;;;13.82;100.00;99410.94;5959158;29;20054;-96
2023/10/24 12:59:58;;;;;;;2.92;2.83;;;;;;;13.74;100.00;99407.38;5958037;29;20042;-96
2023/10/24 13:03:00;;;;;;;3.35;3.25;;;;;;;13.64;100.00;99411.13;5955902;29;20053;-96
2023/10/24 13:06:19;;;;;;;3.25;3.15;;;;;;;13.49;100.00;99417.06;5961431;29;20502;-96
2023/10/24 13:09:29;;;;;;;3.15;3.05;;;;;;;13.34;100.00;99409.13;5971597;29;20578;-96
2023/10/24 13:12:33;;;;;;;3.27;3.17;;;;;;;13.38;100.00;99409.59;5956902;29;20132;-96
2023/10/24 13:15:36;;;;;;;3.83;2.83;;;;;;;13.41;100.00;99408.47;5972852;29;20304;-96
2023/10/24 13:18:39;;;;;;;2.90;2.80;;;;;;;13.23;100.00;99413.84;5956381;29;20398;-96
2023/10/24 13:21:42;;;;;;;3.13;3.03;;;;;;;13.26;100.00;99416.91;5950746;29;20502;-96
2023/10/24 13:24:44;;;;;;;3.08;2.97;;;;;;;13.28;100.00;99411.59;5964101;29;20046;-96
2023/10/24 13:27:47;;;;;;;3.42;3.33;;;;;;;13.28;100.00;99411.59;5973368;29;20414;-96
2023/10/24 13:30:50;;;;;;;3.35;3.25;;;;;;;13.28;100.00;99422.78;5958586;29;20211;-96
2023/10/24 13:34:13;;;;;;;3.35;3.25;;;;;;;13.23;100.00;99417.25;5957387;29;20477;-96
2023/10/24 13:37:39;;;;;;;3.17;3.08;;;;;;;13.17;100.00;99412.72;5953561;29;20054;-96
2023/10/24 13:40:42;;;;;;;3.28;3.17;;;;;;;13.15;100.00;99415.47;5955097;29;20055;-96
2023/10/24 13:43:45;;;;;;;3.00;2.90;;;;;;;13.09;100.00;99423.94;5956951;29;20054;-96
2023/10/24 13:46:48;;;;;;;2.40;2.40;;;;;;;13.09;100.00;99423.94;5953766;29;20616;-96
2023/10/24 13:49:52;;;;;;;2.72;2.72;;;;;;;13.11;100.00;99426.34;5957085;29;20043;-96
2023/10/24 13:52:57;;;;;;;3.20;3.10;;;;;;;13.06;100.00;99426.03;5971346;29;20058;-96
2023/10/24 13:56:01;;;;;;;2.90;2.80;;;;;;;12.98;100.00;99421.66;5955896;29;20039;-96
2023/10/24 13:59:05;;;;;;;3.20;3.10;;;;;;;12.93;100.00;99421.34;5954937;29;20054;-96
2023/10/24 14:02:08;;;;;;;3.05;2.95;;;;;;;12.89;100.00;99422.63;5959258;29;20495;-96
2023/10/24 14:05:10;;;;;;;3.10;3.00;;;;;;;12.84;100.00;99414.53;5955097;29;20138;-96
2023/10/24 14:08:13;;;;;;;3.67;3.58;;;;;;;12.79;100.00;99411.63;5957422;29;20232;-96
2023/10/24 14:11:16;;;;;;;3.33;3.13;;;;;;;12.73;100.00;99410.47;5968492;29;20070;-96
2023/10/24 14:14:19;;;;;;;3.50;3.40;;;;;;;12.69;100.00;99410.00;5957154;29;20062;-96
2023/10/24 14:17:25;;;;;;;3.55;3.45;;;;;;;12.67;100.00;99413.72;5972978;29;20049;-96
2023/10/24 14:20:30;;;;;;;3.17;3.08;;;;;;;12.63;100.00;99422.81;5957322;29;20046;-96
2023/10/24 14:23:34;;;;;;;2.95;2.85;;;;;;;12.60;100.00;99423.16;5953282;29;20062;-96